Time;durP1;ratioP1;P1;durP2;ratioP2;P2;SDS_P1;SDS_P2;PMS_P1;PMS_P2;Temp;Humidity;BMP_temperature;BMP_pressure;BME280_temperature;BME280_humidity;BME280_pressure;Samples;Min_cycle;Max_cycle;Signal;HPM_P1;HPM_P2
2021/01/07 00:01:21;;;;;;;52.03;31.40;;;3.70;66.50;;;;;;6158803;23;20384;-83
2021/01/07 00:03:47;;;;;;;48.27;30.70;;;3.60;66.50;;;;;;6185326;23;20025;-83
2021/01/07 00:06:14;;;;;;;53.80;30.93;;;3.60;66.60;;;;;;6159047;23;20792;-83
2021/01/07 00:08:40;;;;;;;50.33;30.53;;;3.60;66.60;;;;;;6183727;23;20005;-83
2021/01/07 00:11:07;;;;;;;55.83;32.43;;;3.60;66.70;;;;;;6184785;23;20005;-83
2021/01/07 00:13:34;;;;;;;51.07;31.03;;;3.60;66.70;;;;;;6157933;23;20390;-83
2021/01/07 00:16:01;;;;;;;53.93;30.77;;;3.60;66.80;;;;;;6158260;23;20151;-83
2021/01/07 00:18:26;;;;;;;53.27;29.60;;;3.50;66.90;;;;;;6158319;23;20016;-83
2021/01/07 00:20:52;;;;;;;57.87;30.20;;;3.50;66.90;;;;;;6185823;23;20337;-82
2021/01/07 00:23:18;;;;;;;52.30;30.07;;;3.50;67.10;;;;;;6185673;23;20003;-83
2021/01/07 00:25:49;;;;;;;51.10;31.37;;;3.60;67.00;;;;;;6183702;23;20001;-83
2021/01/07 00:28:16;;;;;;;48.67;29.00;;;3.50;66.90;;;;;;6158119;23;20009;-83
2021/01/07 00:30:42;;;;;;;50.10;27.77;;;3.40;67.00;;;;;;6158033;23;20448;-83
2021/01/07 00:33:09;;;;;;;49.17;28.70;;;3.40;67.10;;;;;;6158556;23;20016;-83
2021/01/07 00:35:36;;;;;;;48.57;27.53;;;3.40;67.20;;;;;;6158973;23;20016;-83
2021/01/07 00:38:02;;;;;;;47.73;26.97;;;3.40;67.10;;;;;;6158571;23;20009;-83
2021/01/07 00:40:28;;;;;;;37.03;23.77;;;3.40;67.00;;;;;;6158690;23;20055;-83
2021/01/07 00:42:54;;;;;;;37.13;23.70;;;3.40;67.00;;;;;;6198054;23;20028;-83
2021/01/07 00:45:19;;;;;;;45.67;25.87;;;3.40;67.00;;;;;;6189003;23;20001;-83
2021/01/07 00:47:45;;;;;;;38.57;22.93;;;3.50;67.20;;;;;;6214263;23;19997;-83
2021/01/07 00:50:12;;;;;;;38.23;22.33;;;3.50;67.10;;;;;;6189176;23;20035;-83
2021/01/07 00:52:41;;;;;;;35.07;22.20;;;3.50;66.90;;;;;;6188024;23;20420;-83
2021/01/07 00:55:09;;;;;;;40.07;22.77;;;3.40;66.70;;;;;;6213217;23;20501;-83
2021/01/07 00:57:34;;;;;;;38.10;21.33;;;3.40;67.00;;;;;;6188467;23;20005;-83
2021/01/07 01:00:00;;;;;;;34.33;22.20;;;3.40;67.00;;;;;;6188405;23;20074;-83
2021/01/07 01:02:26;;;;;;;35.13;21.97;;;3.40;66.90;;;;;;6187888;23;20011;-83
2021/01/07 01:04:52;;;;;;;33.87;21.80;;;3.40;67.00;;;;;;6215354;23;20011;-83
2021/01/07 01:07:18;;;;;;;38.00;22.30;;;3.50;66.90;;;;;;6214688;23;20039;-83
2021/01/07 01:09:43;;;;;;;38.43;23.17;;;3.40;66.80;;;;;;6188355;23;20012;-82
2021/01/07 01:12:09;;;;;;;35.87;21.80;;;3.30;66.80;;;;;;6188628;23;20098;-82
2021/01/07 01:14:35;;;;;;;37.77;23.23;;;3.40;67.00;;;;;;6214575;23;20012;-82
2021/01/07 01:17:01;;;;;;;40.80;22.50;;;3.40;66.90;;;;;;6214965;23;20000;-82
2021/01/07 01:19:26;;;;;;;37.33;21.93;;;3.30;66.80;;;;;;6188303;23;20387;-82
2021/01/07 01:21:52;;;;;;;35.93;21.10;;;3.40;66.80;;;;;;6187355;23;20004;-83
2021/01/07 01:24:19;;;;;;;36.70;22.33;;;3.40;66.80;;;;;;6215466;23;20008;-83
2021/01/07 01:26:45;;;;;;;37.70;23.77;;;3.40;66.70;;;;;;6190094;23;20115;-83
2021/01/07 01:29:11;;;;;;;36.53;21.33;;;3.40;66.80;;;;;;6189773;23;20372;-83
2021/01/07 01:31:40;;;;;;;35.23;20.17;;;3.30;66.80;;;;;;6216156;23;20001;-83
2021/01/07 01:34:07;;;;;;;31.50;19.97;;;3.30;66.80;;;;;;6188680;23;20012;-83
2021/01/07 01:36:33;;;;;;;31.63;19.40;;;3.30;66.90;;;;;;6187661;23;20019;-83
2021/01/07 01:38:59;;;;;;;27.37;17.50;;;3.30;66.90;;;;;;6211362;23;20310;-83
2021/01/07 01:41:24;;;;;;;28.07;17.60;;;3.30;67.30;;;;;;6187807;23;20098;-83
2021/01/07 01:43:50;;;;;;;27.67;17.53;;;3.30;67.20;;;;;;6162777;23;20028;-83
2021/01/07 01:46:16;;;;;;;29.33;18.03;;;3.30;67.10;;;;;;6160048;23;20016;-83
2021/01/07 01:48:43;;;;;;;33.10;18.10;;;3.30;67.10;;;;;;6160285;23;20005;-83
2021/01/07 01:51:09;;;;;;;28.53;18.20;;;3.30;66.90;;;;;;6159716;23;20012;-83
2021/01/07 01:53:37;;;;;;;34.77;18.27;;;3.30;66.90;;;;;;6160009;23;20593;-83
2021/01/07 01:56:05;;;;;;;27.27;17.30;;;3.30;66.90;;;;;;6160123;23;20135;-83
2021/01/07 01:58:34;;;;;;;26.73;17.43;;;3.30;66.90;;;;;;6160565;23;20029;-83
2021/01/07 02:01:00;;;;;;;28.53;18.03;;;3.30;66.70;;;;;;6185703;23;20001;-83
2021/01/07 02:03:26;;;;;;;31.63;20.03;;;3.30;66.60;;;;;;6159122;23;20096;-83
2021/01/07 02:05:53;;;;;;;38.27;20.10;;;3.30;66.50;;;;;;6160129;23;20511;-83
2021/01/07 02:08:19;;;;;;;31.13;18.67;;;3.30;66.50;;;;;;6186321;23;19993;-83
2021/01/07 02:10:46;;;;;;;31.80;19.27;;;3.20;66.50;;;;;;6159825;23;20084;-83
2021/01/07 02:13:12;;;;;;;33.27;19.37;;;3.20;66.60;;;;;;6159979;23;20009;-83
2021/01/07 02:15:41;;;;;;;28.87;18.13;;;3.10;66.80;;;;;;6160603;23;20428;-83
2021/01/07 02:18:10;;;;;;;28.27;17.50;;;3.10;67.20;;;;;;6159520;23;20005;-83
2021/01/07 02:20:39;;;;;;;30.20;17.30;;;3.20;67.10;;;;;;6160119;23;20388;-83
2021/01/07 02:23:05;;;;;;;30.57;17.67;;;3.10;67.20;;;;;;6159230;23;20317;-83
2021/01/07 02:25:32;;;;;;;28.70;18.67;;;3.10;67.20;;;;;;6160701;23;20033;-83
2021/01/07 02:27:57;;;;;;;33.80;20.33;;;3.20;67.20;;;;;;6160467;23;20008;-83
2021/01/07 02:30:23;;;;;;;32.13;20.57;;;3.20;67.10;;;;;;6187786;23;20060;-83
2021/01/07 02:32:49;;;;;;;31.60;20.30;;;3.20;67.10;;;;;;6160424;23;20096;-83
2021/01/07 02:35:15;;;;;;;42.87;25.23;;;3.20;67.10;;;;;;6158120;23;20091;-84
2021/01/07 02:37:45;;;;;;;49.77;27.33;;;3.20;67.10;;;;;;6158845;23;20055;-84
2021/01/07 02:40:12;;;;;;;50.50;28.33;;;3.20;67.20;;;;;;6185161;23;20005;-84
2021/01/07 02:42:38;;;;;;;48.03;30.00;;;3.20;67.20;;;;;;6157936;23;20075;-84
2021/01/07 02:45:10;;;;;;;41.83;27.83;;;3.20;67.30;;;;;;6184130;23;20005;-84
2021/01/07 02:47:37;;;;;;;46.95;28.27;;;3.10;67.60;;;;;;6158973;23;20487;-84
2021/01/07 02:50:05;;;;;;;47.37;27.73;;;3.10;67.70;;;;;;6158649;23;20005;-84
2021/01/07 02:52:31;;;;;;;47.37;28.77;;;3.10;67.80;;;;;;6158474;23;20483;-83
2021/01/07 02:54:56;;;;;;;47.33;28.33;;;3.10;67.80;;;;;;6158263;23;20005;-83
2021/01/07 02:57:22;;;;;;;51.77;30.50;;;3.20;67.70;;;;;;6158493;23;20005;-84
2021/01/07 02:59:48;;;;;;;48.03;29.43;;;3.20;67.60;;;;;;6159018;23;20056;-83
2021/01/07 03:02:13;;;;;;;51.50;30.90;;;3.10;67.80;;;;;;6158763;23;20009;-83
2021/01/07 03:04:39;;;;;;;49.67;30.73;;;3.20;67.90;;;;;;6159488;23;20012;-83
2021/01/07 03:07:05;;;;;;;48.57;29.70;;;3.10;67.60;;;;;;6185477;23;20060;-83
2021/01/07 03:09:30;;;;;;;50.63;30.67;;;3.00;67.80;;;;;;6180623;23;20002;-83
2021/01/07 03:11:56;;;;;;;47.27;29.67;;;3.00;68.00;;;;;;6157125;23;20005;-83
2021/01/07 03:14:22;;;;;;;48.80;29.83;;;3.10;68.00;;;;;;6158704;23;20001;-83
2021/01/07 03:16:47;;;;;;;56.47;31.77;;;3.10;67.90;;;;;;6158968;23;20084;-83
2021/01/07 03:19:13;;;;;;;47.77;29.27;;;3.10;68.00;;;;;;6158483;23;20001;-83
2021/01/07 03:21:41;;;;;;;46.43;30.20;;;3.10;68.00;;;;;;6184154;23;20005;-83
2021/01/07 03:24:10;;;;;;;49.03;28.77;;;3.10;67.90;;;;;;6185690;23;20001;-83
2021/01/07 03:26:36;;;;;;;47.63;28.57;;;3.10;68.00;;;;;;6158752;23;20005;-82
2021/01/07 03:29:03;;;;;;;51.50;29.70;;;3.20;68.00;;;;;;6158847;23;20005;-83
2021/01/07 03:31:29;;;;;;;52.13;32.27;;;3.10;67.70;;;;;;6184675;23;20031;-83
2021/01/07 03:33:55;;;;;;;49.87;29.87;;;3.00;68.00;;;;;;6159170;23;20787;-83
2021/01/07 03:36:21;;;;;;;47.20;29.20;;;3.00;68.40;;;;;;6158195;23;20012;-83
2021/01/07 03:38:46;;;;;;;52.27;30.43;;;3.00;68.40;;;;;;6184199;23;20372;-83
2021/01/07 03:41:12;;;;;;;54.10;29.20;;;3.00;68.30;;;;;;6158250;23;20409;-83
2021/01/07 03:43:37;;;;;;;49.57;30.13;;;3.10;68.20;;;;;;6209362;23;20019;-83
2021/01/07 03:46:03;;;;;;;45.37;28.13;;;3.10;68.20;;;;;;6187753;23;20428;-83
2021/01/07 03:48:29;;;;;;;51.83;30.33;;;3.10;68.10;;;;;;6188574;23;20370;-83
2021/01/07 03:50:54;;;;;;;49.70;29.77;;;3.10;68.20;;;;;;6188592;23;20005;-83
2021/01/07 03:53:20;;;;;;;48.77;28.30;;;3.10;68.10;;;;;;6188751;23;20036;-83
2021/01/07 03:55:46;;;;;;;45.63;27.80;;;3.00;68.00;;;;;;6188838;23;20005;-83
2021/01/07 03:58:11;;;;;;;47.63;29.10;;;3.00;68.10;;;;;;6188956;23;20013;-83
2021/01/07 04:00:37;;;;;;;47.87;28.37;;;3.00;68.20;;;;;;6188111;23;20015;-83
2021/01/07 04:03:04;;;;;;;46.87;27.93;;;3.00;68.30;;;;;;6215548;23;20005;-83
2021/01/07 04:05:30;;;;;;;46.03;27.07;;;3.10;68.40;;;;;;6215264;23;20123;-83
2021/01/07 04:07:55;;;;;;;50.37;28.23;;;3.10;68.30;;;;;;6189668;23;20429;-83
2021/01/07 04:10:21;;;;;;;46.00;27.80;;;3.10;68.20;;;;;;6188934;23;20018;-83
2021/01/07 04:12:47;;;;;;;44.83;27.83;;;3.10;68.00;;;;;;6189143;23;20005;-83
2021/01/07 04:15:13;;;;;;;45.23;27.60;;;3.10;68.10;;;;;;6188556;23;20064;-83
2021/01/07 04:17:38;;;;;;;47.93;28.70;;;3.10;68.10;;;;;;6216705;23;20328;-83
2021/01/07 04:20:05;;;;;;;45.00;28.07;;;3.10;68.60;;;;;;6215322;23;20529;-83
2021/01/07 04:22:31;;;;;;;46.73;29.30;;;3.10;68.10;;;;;;6187942;23;19997;-83
2021/01/07 04:24:57;;;;;;;46.53;28.07;;;3.10;68.10;;;;;;6214740;23;20430;-83
2021/01/07 04:27:22;;;;;;;46.23;26.27;;;3.10;68.10;;;;;;6189845;23;20008;-83
2021/01/07 04:29:48;;;;;;;49.90;27.47;;;3.20;67.90;;;;;;6189142;23;20526;-83
2021/01/07 04:32:14;;;;;;;47.77;27.93;;;3.10;68.10;;;;;;6189625;23;20005;-83
2021/01/07 04:34:40;;;;;;;48.83;29.27;;;3.10;68.00;;;;;;6188615;23;20088;-83
2021/01/07 04:37:05;;;;;;;44.47;28.23;;;3.10;68.10;;;;;;6188632;23;20015;-83
2021/01/07 04:39:31;;;;;;;46.27;28.37;;;3.10;68.20;;;;;;6215321;23;20009;-84
2021/01/07 04:41:57;;;;;;;49.73;30.97;;;3.10;68.20;;;;;;6187492;23;20012;-83
2021/01/07 04:44:24;;;;;;;47.67;30.60;;;3.10;68.10;;;;;;6189993;23;20040;-83
2021/01/07 04:46:50;;;;;;;45.10;29.30;;;3.10;68.10;;;;;;6189381;23;20019;-83
2021/01/07 04:49:16;;;;;;;51.70;31.23;;;3.10;68.20;;;;;;6188191;23;20024;-83
2021/01/07 04:51:41;;;;;;;58.53;32.73;;;3.10;68.20;;;;;;6187418;23;20488;-83
2021/01/07 04:54:09;;;;;;;49.63;30.40;;;3.10;68.20;;;;;;6188828;23;20064;-83
2021/01/07 04:56:34;;;;;;;50.53;30.57;;;3.10;68.30;;;;;;6188314;23;20096;-83
2021/01/07 04:59:00;;;;;;;50.17;29.00;;;3.20;68.30;;;;;;6217748;23;20028;-83
2021/01/07 05:01:26;;;;;;;52.13;31.37;;;3.20;68.10;;;;;;6189160;23;20438;-83
2021/01/07 05:03:52;;;;;;;50.47;31.90;;;3.20;68.00;;;;;;6189598;23;20004;-83
2021/01/07 05:06:24;;;;;;;49.43;31.73;;;3.20;68.00;;;;;;6189797;23;20001;-83
2021/01/07 05:08:58;;;;;;;50.35;29.85;;;3.20;68.00;;;;;;6216003;23;19996;-83
2021/01/07 05:11:27;;;;;;;45.10;28.63;;;3.20;68.00;;;;;;6215901;23;20000;-83
2021/01/07 05:13:58;;;;;;;45.97;28.50;;;3.20;67.90;;;;;;6189955;23;20794;-83
2021/01/07 05:16:24;;;;;;;49.40;28.53;;;3.20;67.90;;;;;;6189637;23;20087;-83
2021/01/07 05:18:50;;;;;;;48.50;28.17;;;3.10;67.80;;;;;;6191621;23;20336;-83
2021/01/07 05:21:15;;;;;;;48.97;28.27;;;3.10;67.90;;;;;;6215958;23;20004;-83
2021/01/07 05:23:42;;;;;;;46.87;28.87;;;3.10;68.20;;;;;;6190171;23;20000;-83
2021/01/07 05:26:08;;;;;;;43.67;27.60;;;3.10;68.10;;;;;;6190154;23;20116;-83
2021/01/07 05:28:35;;;;;;;43.73;25.83;;;3.00;68.00;;;;;;6190296;23;20590;-83
2021/01/07 05:31:02;;;;;;;40.90;24.93;;;3.00;67.90;;;;;;6190399;23;20011;-83
2021/01/07 05:33:28;;;;;;;42.83;24.27;;;3.00;68.00;;;;;;6217835;23;20004;-83
2021/01/07 05:35:55;;;;;;;41.10;24.37;;;3.00;67.80;;;;;;6190610;23;20001;-83
2021/01/07 05:38:21;;;;;;;37.07;22.50;;;3.00;67.60;;;;;;6190739;23;20005;-83
2021/01/07 05:40:49;;;;;;;40.83;22.20;;;3.00;67.50;;;;;;6216454;23;20078;-83
2021/01/07 05:43:15;;;;;;;40.70;22.10;;;2.90;67.40;;;;;;6216771;23;20087;-83
2021/01/07 05:45:43;;;;;;;37.83;23.07;;;3.00;67.50;;;;;;6189584;23;20001;-82
2021/01/07 05:48:10;;;;;;;40.40;23.60;;;3.00;67.30;;;;;;6217246;23;19997;-82
2021/01/07 05:50:38;;;;;;;38.60;23.53;;;3.00;67.10;;;;;;6190358;23;20428;-83
2021/01/07 05:53:04;;;;;;;37.00;22.90;;;2.90;67.10;;;;;;6189889;23;20518;-83
2021/01/07 05:55:31;;;;;;;37.70;21.17;;;2.90;67.20;;;;;;6188916;23;20317;-83
2021/01/07 05:58:01;;;;;;;36.03;21.57;;;2.90;67.20;;;;;;6216397;23;20035;-83
2021/01/07 06:00:31;;;;;;;37.90;20.90;;;2.90;67.10;;;;;;6189148;23;20064;-83
2021/01/07 06:03:02;;;;;;;34.57;20.67;;;2.90;67.10;;;;;;6190210;23;20005;-83
2021/01/07 06:05:28;;;;;;;34.13;22.10;;;3.00;67.00;;;;;;6189590;23;20059;-83
2021/01/07 06:07:58;;;;;;;36.10;22.57;;;3.00;67.00;;;;;;6217003;23;20027;-83
2021/01/07 06:10:24;;;;;;;38.00;22.13;;;2.90;66.90;;;;;;6189773;23;20414;-83
2021/01/07 06:12:52;;;;;;;35.20;21.73;;;2.80;66.90;;;;;;6189207;23;20016;-83
2021/01/07 06:15:19;;;;;;;36.90;21.17;;;2.80;66.80;;;;;;6189926;23;20032;-83
2021/01/07 06:17:46;;;;;;;35.07;21.63;;;2.80;66.90;;;;;;6189345;23;20059;-83
2021/01/07 06:20:19;;;;;;;38.87;22.07;;;2.80;66.90;;;;;;6189400;23;20356;-83
2021/01/07 06:22:51;;;;;;;;;;;2.70;66.90;;;;;;6189949;23;20140;-83
2021/01/07 06:25:22;;;;;;;37.10;21.73;;;2.70;67.00;;;;;;6216127;23;19904;-83
2021/01/07 06:27:53;;;;;;;40.63;21.63;;;2.70;67.00;;;;;;6190176;23;20632;-83
2021/01/07 06:30:18;;;;;;;34.07;21.50;;;2.60;67.00;;;;;;6189451;23;20008;-83
2021/01/07 06:32:46;;;;;;;36.07;22.23;;;2.70;67.10;;;;;;6216213;23;20055;-83
2021/01/07 06:35:17;;;;;;;35.53;19.90;;;2.60;67.00;;;;;;6191128;23;20416;-83
2021/01/07 06:37:47;;;;;;;31.70;19.63;;;2.60;67.10;;;;;;6190883;23;20008;-83
2021/01/07 06:40:15;;;;;;;38.50;23.50;;;2.60;67.20;;;;;;6216222;23;20000;-83
2021/01/07 06:42:43;;;;;;;45.07;26.57;;;2.60;67.10;;;;;;6215786;23;20024;-83
2021/01/07 06:45:11;;;;;;;43.63;25.03;;;2.60;67.10;;;;;;6189563;23;20007;-83
2021/01/07 06:47:38;;;;;;;33.33;19.13;;;2.60;67.30;;;;;;6190063;23;20027;-83
2021/01/07 06:50:05;;;;;;;29.67;18.67;;;2.40;67.10;;;;;;6215789;23;20027;-83
2021/01/07 06:52:45;;;;;;;32.13;18.20;;;2.40;67.20;;;;;;6190360;23;20051;-83
2021/01/07 06:55:15;;;;;;;32.23;18.13;;;2.40;67.10;;;;;;6215955;23;20370;-83
2021/01/07 06:57:49;;;;;;;29.10;16.83;;;2.40;67.20;;;;;;6189545;23;20659;-83
2021/01/07 07:00:20;;;;;;;30.80;17.13;;;2.40;67.20;;;;;;6188468;23;20470;-83
2021/01/07 07:03:09;;;;;;;30.17;18.10;;;2.30;66.90;;;;;;6189678;23;20069;-83
2021/01/07 07:05:37;;;;;;;30.77;16.57;;;2.20;66.60;;;;;;6190848;23;20339;-83
2021/01/07 07:08:07;;;;;;;30.20;17.17;;;2.10;66.60;;;;;;6189684;23;20736;-83
2021/01/07 07:10:33;;;;;;;26.93;16.70;;;2.00;66.50;;;;;;6189196;23;20036;-83
2021/01/07 07:12:59;;;;;;;28.33;15.60;;;1.80;66.80;;;;;;6216302;23;20005;-83
2021/01/07 07:15:27;;;;;;;30.90;16.23;;;1.80;67.30;;;;;;6188593;23;20023;-83
2021/01/07 07:17:54;;;;;;;25.53;16.80;;;2.00;67.80;;;;;;6214077;23;20000;-83
2021/01/07 07:20:22;;;;;;;25.93;16.23;;;2.10;67.30;;;;;;6189636;23;20515;-83
2021/01/07 07:22:48;;;;;;;28.37;15.30;;;2.10;66.90;;;;;;6190892;23;20004;-83
2021/01/07 07:25:26;;;;;;;27.97;17.03;;;2.10;66.60;;;;;;6187544;23;20508;-83
2021/01/07 07:28:01;;;;;;;30.43;17.30;;;2.00;66.90;;;;;;6191589;23;20012;-83
2021/01/07 07:30:29;;;;;;;26.43;16.37;;;1.90;66.80;;;;;;6192313;23;20012;-84
2021/01/07 07:32:56;;;;;;;26.73;15.67;;;2.10;67.00;;;;;;6188389;23;20004;-83
2021/01/07 07:35:24;;;;;;;27.60;15.03;;;2.10;66.80;;;;;;6186724;23;20096;-83
2021/01/07 07:37:51;;;;;;;27.40;15.10;;;2.20;66.70;;;;;;6187302;23;20475;-83
2021/01/07 07:40:38;;;;;;;25.93;14.87;;;2.10;66.30;;;;;;6186278;23;20008;-83
2021/01/07 07:43:05;;;;;;;25.77;14.60;;;2.10;66.40;;;;;;6170396;23;20075;-83
2021/01/07 07:45:33;;;;;;;28.30;15.07;;;2.10;66.40;;;;;;6159857;23;20001;-83
2021/01/07 07:47:59;;;;;;;26.10;14.37;;;2.10;66.30;;;;;;6158983;23;20787;-83
2021/01/07 07:50:28;;;;;;;26.83;15.67;;;2.10;66.00;;;;;;6158327;23;20015;-83
2021/01/07 07:53:04;;;;;;;30.27;15.67;;;2.10;65.80;;;;;;6158670;23;20082;-83
2021/01/07 07:55:37;;;;;;;22.37;14.50;;;2.00;65.80;;;;;;6185520;23;20522;-83
2021/01/07 07:58:11;;;;;;;29.80;14.27;;;1.90;65.70;;;;;;6159113;23;20005;-83
2021/01/07 08:00:37;;;;;;;25.10;13.67;;;1.80;65.80;;;;;;6158304;23;20005;-83
2021/01/07 08:03:04;;;;;;;24.10;13.80;;;1.80;66.20;;;;;;6158790;23;20831;-83
2021/01/07 08:05:31;;;;;;;24.27;14.17;;;2.10;66.30;;;;;;6185592;23;19997;-83
2021/01/07 08:07:58;;;;;;;26.83;14.17;;;2.10;65.70;;;;;;6184201;23;20412;-83
2021/01/07 08:10:25;;;;;;;25.03;14.53;;;2.10;65.40;;;;;;6158566;23;20095;-83
2021/01/07 08:12:51;;;;;;;29.47;14.43;;;2.10;65.20;;;;;;6185520;23;20464;-83
2021/01/07 08:15:31;;;;;;;22.00;13.03;;;2.10;65.10;;;;;;6159021;23;20447;-83
2021/01/07 08:18:13;;;;;;;24.30;14.20;;;2.10;64.80;;;;;;6184994;23;20001;-83
2021/01/07 08:20:39;;;;;;;25.30;15.27;;;2.10;65.00;;;;;;6184266;23;20052;-83
2021/01/07 08:23:09;;;;;;;29.33;15.60;;;2.10;65.10;;;;;;6185476;23;20025;-83
2021/01/07 08:25:35;;;;;;;25.20;14.17;;;2.10;65.00;;;;;;6157101;23;20401;-83
2021/01/07 08:28:12;;;;;;;28.53;14.87;;;2.10;64.70;;;;;;6158835;23;20001;-83
2021/01/07 08:30:53;;;;;;;29.67;15.57;;;2.10;64.60;;;;;;6159115;23;20009;-83
2021/01/07 08:33:22;;;;;;;26.47;14.73;;;2.00;64.70;;;;;;6160521;23;20005;-83
2021/01/07 08:35:48;;;;;;;27.13;15.13;;;2.00;64.80;;;;;;6159778;23;20009;-83
2021/01/07 08:38:27;;;;;;;23.83;14.90;;;2.00;64.90;;;;;;6160761;23;20092;-83
2021/01/07 08:41:22;;;;;;;28.03;14.73;;;2.00;65.00;;;;;;6159639;23;20040;-83
2021/01/07 08:43:52;;;;;;;25.27;14.70;;;1.90;64.50;;;;;;6212879;23;20332;-83
2021/01/07 08:46:37;;;;;;;25.20;14.93;;;1.90;65.20;;;;;;6189912;23;20000;-83
2021/01/07 08:49:08;;;;;;;27.77;14.70;;;1.90;65.00;;;;;;6216593;23;20054;-83
2021/01/07 08:51:45;;;;;;;23.10;13.53;;;2.10;65.40;;;;;;6219732;23;20035;-83
2021/01/07 08:54:16;;;;;;;23.10;13.40;;;2.20;64.80;;;;;;6218960;23;20004;-83
2021/01/07 08:56:47;;;;;;;21.47;12.93;;;2.30;64.70;;;;;;6195452;23;20009;-83
2021/01/07 08:59:17;;;;;;;24.73;14.67;;;2.40;64.60;;;;;;6194367;23;20004;-84
2021/01/07 09:01:46;;;;;;;22.77;14.07;;;2.40;64.10;;;;;;6195149;23;20040;-84
2021/01/07 09:04:32;;;;;;;25.77;12.40;;;2.40;64.30;;;;;;6194084;23;20141;-84
2021/01/07 09:07:08;;;;;;;23.73;12.53;;;2.20;63.10;;;;;;6191145;23;20771;-84
2021/01/07 09:09:45;;;;;;;23.17;13.17;;;2.20;63.80;;;;;;6189645;23;20005;-83
2021/01/07 09:12:22;;;;;;;22.27;12.57;;;2.20;63.60;;;;;;6190722;23;20024;-83
2021/01/07 09:14:57;;;;;;;22.27;13.00;;;2.20;63.70;;;;;;6192684;23;20004;-83
2021/01/07 09:17:26;;;;;;;22.23;13.60;;;2.20;63.40;;;;;;6192687;23;20371;-83
2021/01/07 09:19:52;;;;;;;23.13;12.73;;;2.30;63.40;;;;;;6192723;23;20079;-83
2021/01/07 09:22:24;;;;;;;23.07;12.97;;;2.40;63.20;;;;;;6193378;23;20008;-83
2021/01/07 09:24:50;;;;;;;20.93;12.33;;;2.50;62.90;;;;;;6192771;23;20008;-83
2021/01/07 09:27:18;;;;;;;20.13;11.23;;;2.60;62.70;;;;;;6219777;23;20059;-83
2021/01/07 09:29:45;;;;;;;19.87;11.97;;;2.70;62.30;;;;;;6192419;23;20058;-83
2021/01/07 09:32:12;;;;;;;20.77;12.43;;;2.80;62.10;;;;;;6191870;23;20050;-83
2021/01/07 09:34:38;;;;;;;21.77;12.60;;;2.90;61.70;;;;;;6191595;23;20001;-83
2021/01/07 09:37:17;;;;;;;17.03;10.57;;;3.00;61.20;;;;;;6191829;23;20055;-83
2021/01/07 09:39:48;;;;;;;22.13;12.40;;;3.20;61.20;;;;;;6190297;23;20706;-83
2021/01/07 09:42:17;;;;;;;20.90;12.00;;;3.30;60.50;;;;;;6184242;23;20017;-83
2021/01/07 09:44:43;;;;;;;16.73;10.80;;;3.40;60.20;;;;;;6161301;23;20001;-83
2021/01/07 09:47:09;;;;;;;16.80;9.87;;;3.50;59.30;;;;;;6161594;23;20012;-84
2021/01/07 09:49:35;;;;;;;17.27;9.63;;;3.50;58.90;;;;;;6187138;23;20321;-84
2021/01/07 09:52:02;;;;;;;17.73;10.80;;;3.60;59.20;;;;;;6160388;23;20013;-86
2021/01/07 09:54:27;;;;;;;15.53;9.73;;;3.70;58.60;;;;;;6160037;23;20037;-84
2021/01/07 09:56:55;;;;;;;15.10;8.77;;;3.80;58.50;;;;;;6159341;23;20432;-84
2021/01/07 09:59:27;;;;;;;16.37;9.87;;;4.00;58.20;;;;;;6187140;23;20060;-84
2021/01/07 10:01:54;;;;;;;14.13;8.63;;;4.10;57.80;;;;;;6160366;23;20088;-83
2021/01/07 10:04:20;;;;;;;17.20;9.37;;;4.20;57.50;;;;;;6161636;23;20420;-83
2021/01/07 10:06:47;;;;;;;13.53;8.07;;;4.30;57.20;;;;;;6189534;23;19997;-83
2021/01/07 10:09:12;;;;;;;14.43;7.93;;;4.40;56.90;;;;;;6161220;23;20336;-83
2021/01/07 10:11:38;;;;;;;12.13;7.07;;;4.50;56.00;;;;;;6161729;23;20001;-83
2021/01/07 10:14:04;;;;;;;13.27;7.27;;;4.50;55.20;;;;;;6162795;23;20040;-83
2021/01/07 10:16:30;;;;;;;13.80;7.53;;;4.50;54.50;;;;;;6188699;23;20001;-83
2021/01/07 10:18:55;;;;;;;14.80;7.63;;;4.60;54.50;;;;;;6162322;23;20013;-83
2021/01/07 10:21:24;;;;;;;12.27;7.47;;;4.80;53.60;;;;;;6161551;23;20002;-83
2021/01/07 10:23:51;;;;;;;11.00;6.87;;;4.80;53.20;;;;;;6187711;23;20127;-83
2021/01/07 10:26:18;;;;;;;12.63;7.07;;;4.90;52.80;;;;;;6160080;23;20053;-83
2021/01/07 10:28:45;;;;;;;10.50;7.13;;;5.10;52.70;;;;;;6161265;23;20005;-83
2021/01/07 10:31:16;;;;;;;10.27;6.33;;;5.20;52.50;;;;;;6161432;23;20005;-83
2021/01/07 10:33:43;;;;;;;9.60;6.20;;;5.30;52.10;;;;;;6186921;23;20005;-83
2021/01/07 10:36:12;;;;;;;12.67;7.37;;;5.40;52.00;;;;;;6160857;23;20009;-83
2021/01/07 10:38:40;;;;;;;13.23;7.33;;;5.60;51.90;;;;;;6160790;23;20313;-83
2021/01/07 10:41:07;;;;;;;13.50;9.10;;;5.80;51.80;;;;;;6186694;23;20444;-84
2021/01/07 10:43:34;;;;;;;16.60;10.50;;;6.00;51.70;;;;;;6159503;23;20020;-85
2021/01/07 10:46:01;;;;;;;19.83;12.07;;;6.00;51.40;;;;;;6185262;23;20016;-84
2021/01/07 10:48:27;;;;;;;19.33;12.17;;;6.20;51.80;;;;;;6160174;23;20005;-84
2021/01/07 10:50:53;;;;;;;18.10;11.70;;;6.40;51.90;;;;;;6160320;23;20009;-84
2021/01/07 10:53:53;;;;;;;15.77;10.07;;;6.60;51.90;;;;;;6161151;23;20050;-83
2021/01/07 10:56:41;;;;;;;16.97;10.47;;;6.70;51.30;;;;;;6159291;23;20008;-83
2021/01/07 10:59:52;;;;;;;14.47;8.60;;;6.70;51.40;;;;;;6160539;23;20530;-84
2021/01/07 11:02:42;;;;;;;13.73;6.97;;;6.70;51.00;;;;;;6161464;23;20372;-83
2021/01/07 11:05:19;;;;;;;9.17;5.53;;;6.70;50.60;;;;;;6161183;23;20008;-83
2021/01/07 11:08:14;;;;;;;8.20;5.50;;;6.80;50.30;;;;;;6160979;23;20067;-83
2021/01/07 11:10:50;;;;;;;11.73;6.20;;;6.90;49.70;;;;;;6160888;23;20576;-83
2021/01/07 11:13:20;;;;;;;7.83;5.33;;;6.90;49.90;;;;;;6160005;23;20040;-83
2021/01/07 11:15:48;;;;;;;8.87;5.77;;;6.90;49.50;;;;;;6156858;23;20009;-84
2021/01/07 11:18:19;;;;;;;9.57;5.13;;;6.90;48.80;;;;;;6160463;23;20059;-84
2021/01/07 11:20:53;;;;;;;9.83;5.50;;;7.00;48.70;;;;;;6160884;23;20059;-83
2021/01/07 11:23:20;;;;;;;9.80;6.10;;;7.10;48.30;;;;;;6161644;23;19997;-83
2021/01/07 11:25:48;;;;;;;8.77;5.50;;;7.20;48.20;;;;;;6161915;23;20055;-83
2021/01/07 11:28:18;;;;;;;8.10;4.90;;;7.30;48.30;;;;;;6187206;23;19997;-83
2021/01/07 11:30:44;;;;;;;8.57;5.27;;;7.50;47.90;;;;;;6160888;23;20009;-83
2021/01/07 11:33:11;;;;;;;8.70;4.60;;;7.50;47.50;;;;;;6189256;23;20001;-83
2021/01/07 11:35:41;;;;;;;7.67;4.60;;;7.60;47.40;;;;;;6164265;23;20088;-84
2021/01/07 11:38:16;;;;;;;8.10;4.83;;;7.70;47.00;;;;;;6162954;23;20011;-84
2021/01/07 11:41:14;;;;;;;11.90;7.53;;;7.70;46.70;;;;;;6163422;23;20072;-84
2021/01/07 11:44:30;;;;;;;9.13;5.93;;;7.70;46.40;;;;;;6155440;23;20336;-84
2021/01/07 11:47:05;;;;;;;10.97;6.27;;;7.70;46.60;;;;;;6139039;23;20421;-84
2021/01/07 11:49:36;;;;;;;10.03;5.60;;;7.70;46.70;;;;;;6162596;23;20006;-84
2021/01/07 11:52:02;;;;;;;7.27;5.20;;;7.80;46.50;;;;;;6161858;23;20436;-84
2021/01/07 11:54:28;;;;;;;8.70;5.67;;;7.70;46.30;;;;;;6162325;23;20083;-84
2021/01/07 11:56:55;;;;;;;11.90;7.17;;;7.80;46.00;;;;;;6162343;23;20088;-84
2021/01/07 11:59:26;;;;;;;12.23;7.63;;;7.70;45.70;;;;;;6163533;23;20337;-84
2021/01/07 12:01:52;;;;;;;10.00;6.30;;;7.70;45.90;;;;;;6163438;23;20443;-84
2021/01/07 12:04:19;;;;;;;8.33;5.00;;;7.60;46.10;;;;;;6163390;23;20040;-84
2021/01/07 12:07:03;;;;;;;8.13;4.67;;;7.70;45.90;;;;;;6188153;23;20001;-84
2021/01/07 12:09:38;;;;;;;7.83;4.70;;;7.70;45.00;;;;;;6162536;23;20004;-84
2021/01/07 12:12:13;;;;;;;7.63;5.17;;;7.60;44.90;;;;;;6162141;23;20013;-84
2021/01/07 12:14:41;;;;;;;9.47;5.63;;;7.60;44.90;;;;;;6161217;23;20336;-84
2021/01/07 12:17:08;;;;;;;8.90;5.37;;;7.50;44.90;;;;;;6161428;23;20100;-84
2021/01/07 12:19:35;;;;;;;7.30;4.63;;;7.50;44.90;;;;;;6161566;23;20555;-84
2021/01/07 12:22:02;;;;;;;7.77;5.00;;;7.60;44.60;;;;;;6163577;23;20016;-84
2021/01/07 12:24:31;;;;;;;7.77;5.03;;;7.60;44.50;;;;;;6188141;23;19997;-84
2021/01/07 12:26:58;;;;;;;8.67;5.67;;;7.60;44.30;;;;;;6162688;23;20005;-84
2021/01/07 12:29:24;;;;;;;10.40;4.97;;;7.70;44.30;;;;;;6160521;23;20005;-84
2021/01/07 12:31:52;;;;;;;14.63;4.83;;;7.70;44.10;;;;;;6161649;23;20070;-84
2021/01/07 12:34:26;;;;;;;6.67;4.03;;;7.60;43.70;;;;;;6163254;23;20484;-84
2021/01/07 12:37:07;;;;;;;7.13;4.17;;;7.60;43.50;;;;;;6187319;23;20013;-84
2021/01/07 12:39:41;;;;;;;5.90;4.03;;;7.60;43.30;;;;;;6160225;23;20353;-84
2021/01/07 12:42:13;;;;;;;5.47;3.70;;;7.60;43.10;;;;;;6167285;23;20043;-84
2021/01/07 12:44:44;;;;;;;9.03;3.93;;;7.60;43.00;;;;;;6191936;23;20088;-84
2021/01/07 12:47:09;;;;;;;8.23;3.80;;;7.70;42.70;;;;;;6194288;23;20001;-84
2021/01/07 12:49:35;;;;;;;6.77;4.20;;;7.60;42.30;;;;;;6194300;23;20012;-84